• Join FlightAware (Why Join?)
  • Login
  • US Flag 
08:05PM EDT


 

Airport Tracker/Info


-or-


 

Live Flight TrackerFlight Track Log ✈ SWA923 ✈ 01-Jun-2014 ✈ KLAS - KOAK

Flight Track Log - Related Links

Times and Time Zones

All times are in EDT time to prevent confusion due to time zone crossing. See the SWA923 flight status page for this flight to view local times or setup timezone preferences in your user account.

Time Position Orientation Groundspeed Altitude Reporting Facility
EDT Latitude Longitude Course Direction KTS MPH feet Rate Location/Type
09:41PM 36.0642 -115.2539 259° West 224 258 5,300  Level Los Angeles Center
09:41PM 36.0494 -115.2647 211° Southwest 251 289 6,000 2,940 Climbing Los Angeles Center
09:42PM 35.9850 -115.2964 202° Southwest 269 310 8,800 2,700 Climbing Los Angeles Center
09:43PM 35.9331 -115.3472 218° Southwest 286 329 11,100 2,520 Climbing Los Angeles Center
09:44PM 35.9094 -115.4525 255° West 340 391 13,600 2,520 Climbing Los Angeles Center
09:45PM 35.9056 -115.5872 268° West 365 420 16,400 3,240 Climbing Los Angeles Center
09:46PM 35.9031 -115.7167 269° West 377 434 20,400 3,240 Climbing Los Angeles Center
09:47PM 35.9011 -115.8519 269° West 370 426 23,200 2,220 Climbing Los Angeles Center
09:48PM 35.9244 -115.9611 285° West 386 444 25,100 1,980 Climbing Los Angeles Center
09:49PM 35.9786 -116.0822 299° West 400 460 27,400 2,220 Climbing Los Angeles Center
09:50PM 36.0433 -116.2292 299° West 404 465 29,700 2,040 Climbing Los Angeles Center
09:51PM 36.0972 -116.3506 299° West 406 467 31,700 1,800 Climbing Los Angeles Center
09:52PM 36.1525 -116.4756 299° West 412 474 33,400 1,740 Climbing Los Angeles Center
09:53PM 36.2053 -116.5972 298° West 407 468 35,300 1,620 Climbing Los Angeles Center
09:54PM 36.2594 -116.7192 299° West 405 466 36,800 1,260 Climbing Los Angeles Center
09:55PM 36.3111 -116.8400 298° West 401 461 38,000 1,140 Climbing Los Angeles Center
09:56PM 36.3739 -116.9844 298° West 401 461 39,200 960 Climbing Los Angeles Center
09:57PM 36.4256 -117.1056 298° West 401 461 40,000 360 Climbing Los Angeles Center
09:58PM 36.4778 -117.2272 298° West 400 460 40,000  Level Los Angeles Center
09:59PM 36.5308 -117.3525 298° West 402 463 40,000  Level Los Angeles Center
10:00PM 36.5833 -117.4794 297° West 408 470 40,000  Level Los Angeles Center
10:01PM 36.6372 -117.6039 298° West 408 470 40,000  Level Los Angeles Center
10:02PM 36.6747 -117.6958 297° West 407 468 40,000  Level Oakland Center
10:03PM 36.7267 -117.8189 298° West 407 468 40,000  Level Oakland Center
10:04PM 36.7792 -117.9444 298° West 407 468 40,000  Level Oakland Center
10:05PM 36.8283 -118.0653 297° West 396 456 40,000  Level Oakland Center
10:06PM 36.8814 -118.1919 298° West 404 465 40,000  Level Oakland Center
10:07PM 36.9331 -118.3167 297° West 405 466 40,000  Level Oakland Center
10:08PM 36.9842 -118.4411 297° West 404 465 40,000  Level Oakland Center
10:09PM 37.0342 -118.5650 297° West 395 455 40,000  Level Oakland Center
10:10PM 37.0839 -118.6914 296° West 401 461 40,000  Level Oakland Center
10:11PM 37.1350 -118.8161 297° West 402 463 40,000  Level Oakland Center
10:12PM 37.1867 -118.9433 297° West 407 468 40,000  Level Oakland Center
10:13PM 37.2486 -119.0961 297° West 409 471 40,000  Level Oakland Center
10:14PM 37.2997 -119.2256 296° West 411 473 40,000 -300 Level Oakland Center
10:15PM 37.3508 -119.3525 297° West 411 473 39,500 -660 Descending Oakland Center
10:16PM 37.4003 -119.4758 297° West 400 460 38,700 -840 Descending Oakland Center
10:17PM 37.4436 -119.5903 296° West 399 459 37,800 -1,620 Descending Oakland Center
10:18PM 37.5036 -119.7408 297° West 401 461 35,400 -2,700 Descending Oakland Center
10:19PM 37.5539 -119.8694 296° West 407 468 32,400 -1,680 Descending Oakland Center
10:20PM 37.6056 -119.9994 297° West 412 474 32,000 -540 Descending Oakland Center
10:21PM 37.6567 -120.1314 296° West 414 476 31,400 -840 Descending Oakland Center
10:22PM 37.7075 -120.2614 296° West 415 478 30,400 -1,140 Descending Oakland Center
10:23PM 37.7567 -120.3886 296° West 409 471 29,100 -1,860 Descending Oakland Center
10:24PM 37.8044 -120.5142 296° West 400 460 26,700 -1,740 Descending Oakland Center
10:25PM 37.8508 -120.6367 296° West 388 447 25,600 -1,440 Descending Oakland Center
10:27PM 37.8578 -120.7689 274° West 381 438 23,800 -2,220 Descending Oakland Center
10:28PM 37.8333 -120.9167 258° West 377 434 21,000 -2,520 Descending Northern Cal TRACON
10:29PM 37.8000 -121.0500 252° West 389 448 18,500 -2,400 Descending Northern Cal TRACON
10:30PM 37.7667 -121.1667 250° West 396 456 16,300 -2,400 Descending Northern Cal TRACON
10:31PM 37.7333 -121.3000 252° West 372 428 13,700 -2,280 Descending Northern Cal TRACON
10:32PM 37.7167 -121.4167 260° West 351 404 11,600 -1,800 Descending Northern Cal TRACON
10:33PM 37.6833 -121.5500 253° West 336 387 10,100 -1,440 Descending Northern Cal TRACON
10:34PM 37.6667 -121.6500 258° West 299 344 8,800 -1,380 Descending Northern Cal TRACON
10:35PM 37.6333 -121.7500 247° West 290 334 7,400 -1,620 Descending Northern Cal TRACON
10:36PM 37.6167 -121.8333 256° West 286 329 5,800 -1,620 Descending Northern Cal TRACON
10:37PM 37.6167 -121.9500 270° West 274 315 4,100 -1,200 Descending Northern Cal TRACON
10:38PM 37.6000 -122.0167 253° West 257 296 3,400 -900 Descending Northern Cal TRACON
10:39PM 37.6333 -122.1000 297° West 198 228 2,400 -960 Descending Northern Cal TRACON
10:40PM 37.6500 -122.1500 293° West 168 193 1,500 -840 Descending Northern Cal TRACON
10:41PM 37.6833 -122.1833 322° Northwest 135 155 900 -720 Descending Northern Cal TRACON
10:44PM 37.7167 -122.2167 270° West  Level FlightAware Approximate